PRONOSTICO Y METAR AIFA


TAF MMSM 141736Z 1418/1524 34012KT P6SM BKN020 BKN080 BKN250 TEMPO 1422/1502 5SM TSRA BKN020CB
          FM150200 34005KT 6SM -RA BKN020CB OVC080 TEMPO 1503/1507 5SM TSRA
          FM150700 34005KT P6SM SCT020 BKN080
          FM151800 03010KT P6SM SCT020 BKN080 BKN250 PROB40 1521/1524 6SM -RA BKN020CB=
TAF MMSM 141103Z 1412/1518 04005KT 6SM HZ SCT020 SCT080 BKN250
          FM141800 34012KT P6SM BKN020 BKN080 OVC250 TEMPO 1422/1502 5SM TSRA BKN020CB
          FM150600 34005KT P6SM SCT020 BKN080
          FM151700 03010KT P6SM SCT020 BKN080 BKN250=


METAR MMSM 141746Z 26003KT 6SM BKN020TCU BKN200 22/13 A3032 RMK 8/208 HZY AC=
METAR MMSM 141647Z 32002KT 5SM SCT020 BKN200 23/14 A3033 RMK 8/208 HZY=
SPECI MMSM 141608Z 06003KT 5SM SCT020 BKN200 22/15 A3034 RMK 8/208 HZY=
METAR MMSM 141546Z 00000KT 5SM SCT020 BKN200 20/13 A3034 RMK 8/102 HZY AC=
METAR MMSM 141520Z 00000KT 5SM FEW020 BKN200 21/13 A3033 RMK 8/102 HZY AC=
METAR MMSM 141447Z 16004KT 6SM FEW080 BKN200 18/14 A3033 RMK 8/032 HZY ISOL SC=
SPECI MMSM 141456Z 13002KT 6SM FEW080 BKN200 20/14 A3033 RMK 8/032 HZY CU SC=
METAR MMSM 141420Z 06002KT 6SM FEW080 BKN200 17/14 A3033 RMK 8/032 HZY SC=
METAR MMSM 141346Z 00000KT 6SM FEW020 BKN200 14/13 A3032 RMK 8/502 HZY AC=
SPECI MMSM 141408Z 00000KT 6SM FEW020 BKN200 16/14 A3032 RMK 8/502 HZY AC=
METAR MMSM 141321Z 00000KT 6SM SCT020 BKN200 13/12 A3032 RMK 8/502 HZY AC=
METAR MMSM 141246Z 33003KT 6SM SCT020 BKN200 12/11 A3031 RMK 8/502 HZY AC=
METAR MMSM 141221Z 00000KT 5SM SCT025 SCT070 BKN200 11/10 A3034 RMK 8/532 HZY=
METAR MMSM 141155Z 00000KT 5SM SCT025 BKN070 BKN200 11/10 A3033 RMK 8/532=
METAR MMSM 141046Z 05002KT 6SM SCT070 BKN200 12/11 A3033 RMK 8/032 HZY=
METAR MMSM 140944Z 00000KT 7SM SCT070 BKN200 12/11 A3033 RMK 8/032 HZY=
METAR MMSM 140844Z 32002KT 8SM BKN070 BKN200 13/12 A3034 RMK 8/032 HZY=
METAR MMSM 140746Z 07002KT 8SM BKN070 BKN200 14/12 A3036 RMK 8/032 HZY=
METAR MMSM 140642Z 35005KT 8SM SCT070 BKN200 14/12 A3038 RMK 8/032 SC=
METAR MMSM 140549Z 05002KT 8SM FEW070 SCT200 14/12 A3039 RMK 8/032=
METAR MMSM 140446Z 02004KT 7SM FEW070 SCT200 15/12 A3039 RMK 8/032 SC=
METAR MMSM 140347Z 04005KT 7SM SCT020 BKN070 BKN200 16/12 A3039 RMK 8/463 DSNT LTG 3RD QUAD AND WNW=
METAR MMSM 140249Z 04009KT 7SM SCT020 BKN070 BKN200 17/12 A3035 RMK 8/463 DSNT LTG E 2ND AND 3RD QUAD=
METAR MMSM 140144Z 04006KT 7SM SCT020 BKN080 BKN200 17/12 A3033 RMK 8/463 CB N NE S=
METAR MMSM 140046Z 03010KT 7SM SCT020CB BKN070 OVC200 18/14 A3031 RMK 8/363 DSNT PCPN E/S=
METAR MMSM 132344Z 08009KT 7SM SCT020CB BKN070 OVC200 18/14 A3026 RMK 8/363 DSNT PCPN E S SW=
METAR MMSM 132244Z 10006KT 6SM VCRA BKN020CB BKN070 OVC200 18/13 A3027 RMK 8/363 STFRA=
SPECI MMSM 132212Z 04012KT 6SM VCRA BKN020CB BKN070 OVC200 19/13 A3026 RMK 8/363 BINOVC STFRA=
METAR MMSM 132143Z 34019KT 6SM BKN020CB BKN070 BKN200 22/11 A3024 RMK 8/363 PCPN 1ST QUAD STFRA=
SPECI MMSM 132121Z 35016G28KT 6SM BKN020CB BKN070 BKN200 22/12 A3024 RMK 8/363 DU DSNT PCPN N NE NW=
METAR MMSM 132043Z 02005KT 8SM BKN020CB BKN200 27/12 A3024 RMK 8/303 HZY DSNT PCPN N NE=
SPECI MMSM 132107Z 18012G29KT 4SM BKN020CB BKN200 24/12 A3024 RMK 8/303 BLDU DSNT PCPN N NW=
SPECI MMSM 132101Z 34010KT 6SM BKN020CB BKN200 25/12 A3024 RMK 8/303 HZY DU VSBY LWR N DSNT PCPN N NW=
METAR MMSM 131949Z 00000KT 8SM BKN020CB BKN200 26/12 A3029 RMK 8/308 HZY=
SPECI MMSM 131925Z 12003KT 8SM BKN020TCU BKN200 25/14 A3031 RMK 8/208 HZY CB N/E=
METAR MMSM 131846Z 30003KT 8SM BKN020TCU BKN200 23/13 A3033 RMK 8/208 HZY DSNT CB N AND E=
METAR MMSM 131748Z 00000KT 8SM BKN020TCU BKN200 22/14 A3035 RMK 8/208 HZY=